createdAt,value
2023-02-06T00:00:54.363Z,39.20
2023-02-06T00:03:22.596Z,41.53
2023-02-06T00:05:57.518Z,40.70
2023-02-06T00:08:25.515Z,41.03
2023-02-06T00:10:55.275Z,41.87
2023-02-06T00:13:23.341Z,45.50
2023-02-06T00:15:51.434Z,41.37
2023-02-06T00:18:19.420Z,41.67
2023-02-06T00:20:47.431Z,38.00
2023-02-06T00:23:15.551Z,40.43
2023-02-06T00:25:43.753Z,38.27
2023-02-06T00:28:13.130Z,35.80
2023-02-06T00:30:41.222Z,45.30
2023-02-06T00:33:09.225Z,42.67
2023-02-06T00:35:37.701Z,40.60
2023-02-06T00:38:06.750Z,41.60
2023-02-06T00:40:34.747Z,36.90
2023-02-06T00:43:02.700Z,39.17
2023-02-06T00:45:32.133Z,41.33
2023-02-06T00:48:00.207Z,41.63
2023-02-06T00:50:28.681Z,37.57
2023-02-06T00:52:56.667Z,44.17
2023-02-06T00:55:25.042Z,42.63
2023-02-06T00:57:53.108Z,42.37
2023-02-06T01:00:21.149Z,40.27
2023-02-06T01:02:50.446Z,43.17
2023-02-06T01:05:18.494Z,44.00
2023-02-06T01:07:46.496Z,43.67
2023-02-06T01:10:14.768Z,45.17
2023-02-06T01:12:42.901Z,44.00
2023-02-06T01:15:13.990Z,47.70
2023-02-06T01:17:42.911Z,46.87
2023-02-06T01:20:14.762Z,47.57
2023-02-06T01:22:43.013Z,46.87
2023-02-06T01:25:11.208Z,46.33
2023-02-06T01:27:39.574Z,48.20
2023-02-06T01:30:09.362Z,46.27
2023-02-06T01:32:38.795Z,46.57
2023-02-06T01:35:07.950Z,44.63
2023-02-06T01:37:37.866Z,43.00
2023-02-06T01:40:07.367Z,44.37
2023-02-06T01:42:35.864Z,43.77
2023-02-06T01:45:53.007Z,44.40
2023-02-06T01:48:26.155Z,45.47
2023-02-06T01:50:56.774Z,44.40
2023-02-06T01:53:27.194Z,45.67
2023-02-06T01:55:57.287Z,45.33
2023-02-06T01:58:30.067Z,46.57
2023-02-06T02:01:00.246Z,44.77
2023-02-06T02:03:29.740Z,46.93
2023-02-06T02:06:01.350Z,44.17
2023-02-06T02:08:36.545Z,45.27
2023-02-06T02:11:06.631Z,45.33
2023-02-06T02:13:36.531Z,44.77
2023-02-06T02:16:13.979Z,48.57
2023-02-06T02:19:00.744Z,49.77
2023-02-06T02:22:18.335Z,47.30
2023-02-06T02:25:21.833Z,43.53
2023-02-06T02:28:22.451Z,44.80
2023-02-06T02:31:09.339Z,44.03
2023-02-06T02:33:59.433Z,42.80
2023-02-06T02:36:33.571Z,42.87
2023-02-06T02:39:10.094Z,41.30
2023-02-06T02:41:44.583Z,40.90
2023-02-06T02:44:17.490Z,40.10
2023-02-06T02:46:49.118Z,44.73
2023-02-06T02:49:21.256Z,42.97
2023-02-06T02:51:51.455Z,44.30
2023-02-06T02:54:19.682Z,42.63
2023-02-06T02:56:48.144Z,42.27
2023-02-06T02:59:23.970Z,46.17
2023-02-06T03:01:57.500Z,43.17
2023-02-06T03:04:29.891Z,44.30
2023-02-06T03:07:09.569Z,43.73
2023-02-06T03:09:48.463Z,41.57
2023-02-06T03:12:23.856Z,42.43
2023-02-06T03:14:56.688Z,42.33
2023-02-06T03:17:32.569Z,42.67
2023-02-06T03:20:03.593Z,41.43
2023-02-06T03:22:35.673Z,41.53
2023-02-06T03:25:05.698Z,37.57
2023-02-06T03:27:34.863Z,38.60
2023-02-06T03:30:05.407Z,37.70
2023-02-06T03:32:37.821Z,36.63
2023-02-06T03:35:09.423Z,37.43
2023-02-06T03:37:39.923Z,37.30
2023-02-06T03:40:10.371Z,36.13
2023-02-06T03:42:43.509Z,37.00
2023-02-06T03:45:25.519Z,33.90
2023-02-06T03:47:55.423Z,36.37
2023-02-06T03:50:25.514Z,37.73
2023-02-06T03:52:56.393Z,35.37
2023-02-06T03:55:25.304Z,85.70
2023-02-06T03:57:56.970Z,71.40
2023-02-06T04:00:25.516Z,46.13
2023-02-06T04:03:05.918Z,36.07
2023-02-06T04:05:34.138Z,33.90
2023-02-06T04:08:03.610Z,32.30
2023-02-06T04:10:31.641Z,34.63
2023-02-06T04:12:59.620Z,34.57
2023-02-06T04:15:27.624Z,31.63
2023-02-06T04:18:00.973Z,32.97
2023-02-06T04:20:30.313Z,28.77
2023-02-06T04:22:59.193Z,56.17
2023-02-06T04:25:28.734Z,97.53
2023-02-06T04:27:56.858Z,62.93
2023-02-06T04:30:24.924Z,45.93
2023-02-06T04:32:53.181Z,39.60
2023-02-06T04:35:21.162Z,37.50
2023-02-06T04:37:49.169Z,37.10
2023-02-06T04:40:18.008Z,37.67
2023-02-06T04:42:47.701Z,34.10
2023-02-06T04:45:15.898Z,35.60
2023-02-06T04:47:44.013Z,33.80
2023-02-06T04:50:12.011Z,32.50
2023-02-06T04:52:39.962Z,33.37
2023-02-06T04:55:08.879Z,34.20
2023-02-06T04:57:36.955Z,33.37
2023-02-06T05:00:07.496Z,34.67
2023-02-06T05:02:39.558Z,34.60
2023-02-06T05:05:09.537Z,33.77
2023-02-06T05:07:37.756Z,33.13
2023-02-06T05:10:06.611Z,36.87
2023-02-06T05:12:34.626Z,32.97
2023-02-06T05:15:02.602Z,33.03
2023-02-06T05:17:31.894Z,33.57
2023-02-06T05:20:00.223Z,32.63
2023-02-06T05:22:28.906Z,31.70
2023-02-06T05:24:56.892Z,33.03
2023-02-06T05:27:25.760Z,31.73
2023-02-06T05:29:53.736Z,30.30
2023-02-06T05:32:21.690Z,31.67
2023-02-06T05:34:51.017Z,33.00
2023-02-06T05:37:18.912Z,30.73
2023-02-06T05:39:46.872Z,31.03
2023-02-06T05:42:14.863Z,30.40
2023-02-06T05:44:42.850Z,29.33
2023-02-06T05:47:10.797Z,29.40
2023-02-06T05:49:38.722Z,29.37
2023-02-06T05:52:07.978Z,25.30
2023-02-06T05:54:35.914Z,29.57
2023-02-06T05:57:04.316Z,30.20
2023-02-06T05:59:32.339Z,27.57
2023-02-06T06:02:00.337Z,28.87
2023-02-06T06:04:28.451Z,32.57
2023-02-06T06:06:56.408Z,29.90
2023-02-06T06:09:25.733Z,29.33
2023-02-06T06:11:53.650Z,27.37
2023-02-06T06:14:21.565Z,27.57
2023-02-06T06:16:49.590Z,28.57
2023-02-06T06:19:17.562Z,30.87
2023-02-06T06:21:45.798Z,29.60
2023-02-06T06:24:14.077Z,28.57
2023-02-06T06:26:43.439Z,30.07
2023-02-06T06:29:11.404Z,30.63
2023-02-06T06:31:39.450Z,27.83
2023-02-06T06:34:07.463Z,25.93
2023-02-06T06:36:35.446Z,28.00
2023-02-06T06:39:03.461Z,29.03
2023-02-06T06:41:31.446Z,28.27
2023-02-06T06:44:01.287Z,28.03
2023-02-06T06:46:29.694Z,27.30
2023-02-06T06:48:57.907Z,27.43
2023-02-06T06:51:26.767Z,27.17
2023-02-06T06:53:54.965Z,29.17
2023-02-06T06:56:22.940Z,27.83
2023-02-06T06:58:51.828Z,29.00
2023-02-06T07:01:21.244Z,28.73
2023-02-06T07:03:49.305Z,27.93
2023-02-06T07:06:17.416Z,27.00
2023-02-06T07:08:45.350Z,27.67
2023-02-06T07:11:15.290Z,26.83
2023-02-06T07:13:43.334Z,26.90
2023-02-06T07:16:11.500Z,26.17
2023-02-06T07:18:42.915Z,29.50
2023-02-06T07:21:11.749Z,26.93
2023-02-06T07:23:40.068Z,27.37
2023-02-06T07:26:08.018Z,27.67
2023-02-06T07:28:36.056Z,28.13
2023-02-06T07:31:05.103Z,27.47
2023-02-06T07:33:33.130Z,26.73
2023-02-06T07:36:04.186Z,27.90
2023-02-06T07:38:32.459Z,30.00
2023-02-06T07:41:02.790Z,29.00
2023-02-06T07:43:31.145Z,28.27
2023-02-06T07:46:00.880Z,30.47
2023-02-06T07:48:29.427Z,30.40
2023-02-06T07:50:57.541Z,37.07
2023-02-06T07:53:26.845Z,40.50
2023-02-06T07:55:54.773Z,37.67
2023-02-06T07:58:22.790Z,38.83
2023-02-06T08:00:50.781Z,35.73
2023-02-06T08:03:19.119Z,34.17
2023-02-06T08:05:47.069Z,33.73
2023-02-06T08:08:14.991Z,32.77
2023-02-06T08:10:44.237Z,34.00
2023-02-06T08:13:12.182Z,34.60
2023-02-06T08:15:40.140Z,32.03
2023-02-06T08:18:09.106Z,34.93
2023-02-06T08:20:37.198Z,36.33
2023-02-06T08:23:05.170Z,34.67
2023-02-06T08:25:33.074Z,36.10
2023-02-06T08:28:02.426Z,31.20
2023-02-06T08:30:32.338Z,32.77
2023-02-06T08:33:00.560Z,31.57
2023-02-06T08:35:28.466Z,30.73
2023-02-06T08:37:56.438Z,32.63
2023-02-06T08:40:24.466Z,33.60
2023-02-06T08:42:52.424Z,33.43
2023-02-06T08:45:21.834Z,30.43
2023-02-06T08:47:49.754Z,33.00
2023-02-06T08:50:17.988Z,60.67
2023-02-06T08:52:46.011Z,45.37
2023-02-06T08:55:13.946Z,36.67
2023-02-06T08:57:41.864Z,35.10
2023-02-06T09:00:10.976Z,33.53
2023-02-06T09:02:40.254Z,34.57
2023-02-06T09:05:08.543Z,29.33
2023-02-06T09:07:36.450Z,29.70
2023-02-06T09:10:04.550Z,29.63
2023-02-06T09:12:32.469Z,27.37
2023-02-06T09:15:00.453Z,28.13
2023-02-06T09:17:31.481Z,24.03
2023-02-06T09:20:00.947Z,25.00
2023-02-06T09:22:30.439Z,23.57
2023-02-06T09:24:58.389Z,20.77
2023-02-06T09:27:26.316Z,20.57
2023-02-06T09:29:54.257Z,21.50
2023-02-06T09:32:22.214Z,21.60
2023-02-06T09:34:50.217Z,21.13
2023-02-06T09:37:19.513Z,21.20
2023-02-06T09:39:47.428Z,20.47
2023-02-06T09:42:20.338Z,18.80
2023-02-06T09:44:53.464Z,20.30
2023-02-06T09:47:27.222Z,19.20
2023-02-06T09:49:58.590Z,17.40
2023-02-06T09:52:52.197Z,17.13
2023-02-06T09:55:30.259Z,15.23
2023-02-06T09:58:08.351Z,16.90
2023-02-06T10:00:42.592Z,15.77
2023-02-06T10:03:37.619Z,15.93
2023-02-06T10:06:20.211Z,14.90
2023-02-06T10:08:56.278Z,14.43
2023-02-06T10:11:33.733Z,15.17
2023-02-06T10:14:04.957Z,13.07
2023-02-06T10:16:39.666Z,13.47
2023-02-06T10:19:15.761Z,13.50
2023-02-06T10:21:47.437Z,14.10
2023-02-06T10:24:25.016Z,13.77
2023-02-06T10:26:54.878Z,12.03
2023-02-06T10:29:27.894Z,12.97
2023-02-06T10:32:12.410Z,11.80
2023-02-06T10:34:58.352Z,9.93
2023-02-06T10:37:47.826Z,9.83
2023-02-06T10:40:36.461Z,9.93
2023-02-06T10:43:13.343Z,9.87
2023-02-06T10:45:45.455Z,8.30
2023-02-06T10:48:24.257Z,8.57
2023-02-06T10:50:57.479Z,8.10
2023-02-06T10:53:31.499Z,7.20
2023-02-06T10:56:04.094Z,7.70
2023-02-06T10:58:37.131Z,8.10
2023-02-06T11:01:23.623Z,7.43
2023-02-06T11:03:59.367Z,6.80
2023-02-06T11:06:29.843Z,7.30
2023-02-06T11:08:57.886Z,6.07
2023-02-06T11:11:30.640Z,7.20
2023-02-06T11:14:05.349Z,6.33
2023-02-06T11:16:37.512Z,6.97
2023-02-06T11:19:17.389Z,8.03
2023-02-06T11:21:55.262Z,7.63
2023-02-06T11:24:24.683Z,7.17
2023-02-06T11:26:57.450Z,6.87
2023-02-06T11:29:27.845Z,7.70
2023-02-06T11:31:59.655Z,7.97
2023-02-06T11:34:31.064Z,8.77
2023-02-06T11:37:00.981Z,7.47
2023-02-06T11:39:31.875Z,5.40
2023-02-06T11:42:05.351Z,5.80
2023-02-06T11:44:38.282Z,5.20
2023-02-06T11:47:22.401Z,4.67
2023-02-06T11:49:50.379Z,6.57
2023-02-06T11:52:30.413Z,5.77
2023-02-06T11:55:02.125Z,7.07
2023-02-06T11:57:35.281Z,9.03
2023-02-06T12:00:06.435Z,6.73
2023-02-06T12:02:40.077Z,9.67
2023-02-06T12:05:13.536Z,8.50
2023-02-06T12:07:46.310Z,9.37
2023-02-06T12:10:15.879Z,8.73
2023-02-06T12:12:49.620Z,4.03
2023-02-06T12:15:45.920Z,5.00
2023-02-06T12:18:15.254Z,10.00
2023-02-06T12:20:50.070Z,10.23
2023-02-06T12:23:23.459Z,9.90
2023-02-06T12:25:55.158Z,9.67
2023-02-06T12:28:28.917Z,9.73
2023-02-06T12:30:59.721Z,8.83
2023-02-06T12:33:34.674Z,9.27
2023-02-06T12:36:07.632Z,8.17
2023-02-06T12:38:44.111Z,8.37
2023-02-06T12:41:27.970Z,8.80
2023-02-06T12:44:02.964Z,8.63
2023-02-06T12:46:31.888Z,8.60
2023-02-06T12:49:07.807Z,8.13
2023-02-06T12:51:40.453Z,7.80
2023-02-06T12:54:15.694Z,9.60
2023-02-06T12:56:47.800Z,10.80
2023-02-06T12:59:58.470Z,9.40
2023-02-06T13:02:45.699Z,8.97
2023-02-06T13:05:22.861Z,7.87
2023-02-06T13:07:51.695Z,9.37
2023-02-06T13:10:21.650Z,8.30
2023-02-06T13:12:55.603Z,7.63
2023-02-06T13:15:28.144Z,7.20
2023-02-06T13:17:57.834Z,7.63
2023-02-06T13:20:27.459Z,8.13
2023-02-06T13:23:16.534Z,7.77
2023-02-06T13:25:55.888Z,7.27
2023-02-06T13:29:00.778Z,7.80
2023-02-06T13:31:35.446Z,6.77
2023-02-06T13:34:11.909Z,7.50
2023-02-06T13:36:53.884Z,8.40
2023-02-06T13:39:31.431Z,7.57
2023-02-06T13:42:04.345Z,6.33
2023-02-06T13:44:35.005Z,6.80
2023-02-06T13:47:35.733Z,6.70
2023-02-06T13:50:52.959Z,5.97
2023-02-06T13:53:34.072Z,5.23
2023-02-06T13:56:15.625Z,4.70
2023-02-06T13:58:49.439Z,4.47
2023-02-06T14:01:22.860Z,5.23
2023-02-06T14:03:54.730Z,4.67
2023-02-06T14:06:49.415Z,3.80
2023-02-06T14:09:31.407Z,3.80
2023-02-06T14:12:26.817Z,3.57
2023-02-06T14:15:12.420Z,4.17
2023-02-06T14:18:00.895Z,4.50
2023-02-06T14:20:39.742Z,3.77
2023-02-06T14:23:16.413Z,4.43
2023-02-06T14:26:04.661Z,4.53
2023-02-06T14:28:45.040Z,4.60
2023-02-06T14:31:33.248Z,5.00
2023-02-06T14:34:17.388Z,6.17
2023-02-06T14:36:59.122Z,5.30
2023-02-06T14:39:52.670Z,5.47
2023-02-06T14:42:25.123Z,5.27
2023-02-06T14:44:57.350Z,6.80
2023-02-06T14:47:28.526Z,4.93
2023-02-06T14:49:58.390Z,5.30
2023-02-06T14:52:30.689Z,5.93
2023-02-06T14:54:58.755Z,5.90
2023-02-06T14:57:29.003Z,5.40
2023-02-06T14:59:59.867Z,6.00
2023-02-06T15:02:30.980Z,8.50
2023-02-06T15:04:59.781Z,8.40
2023-02-06T15:07:32.719Z,7.20
2023-02-06T15:10:05.712Z,7.63
2023-02-06T15:12:34.848Z,7.33
2023-02-06T15:15:16.853Z,8.07
2023-02-06T15:17:45.172Z,7.80
2023-02-06T15:20:24.999Z,7.80
2023-02-06T15:23:04.947Z,9.37
2023-02-06T15:25:58.211Z,7.37
2023-02-06T15:28:33.595Z,7.67
2023-02-06T15:31:03.342Z,8.40
2023-02-06T15:33:34.067Z,8.90
2023-02-06T15:36:04.389Z,9.13
2023-02-06T15:38:35.031Z,9.00
2023-02-06T15:41:07.598Z,10.93
2023-02-06T15:43:36.546Z,10.63
2023-02-06T15:46:06.583Z,13.40
2023-02-06T15:48:39.148Z,22.13
2023-02-06T15:51:20.658Z,16.67
2023-02-06T15:53:51.478Z,19.40
2023-02-06T15:56:25.844Z,27.57
2023-02-06T15:58:59.302Z,24.47
2023-02-06T16:01:28.830Z,14.10
2023-02-06T16:03:59.742Z,14.13
2023-02-06T16:06:27.741Z,14.67
2023-02-06T16:09:00.932Z,13.87
2023-02-06T16:11:50.922Z,14.83
2023-02-06T16:14:29.252Z,14.17
2023-02-06T16:16:58.749Z,15.47
2023-02-06T16:19:39.911Z,17.10
2023-02-06T16:22:17.770Z,16.87
2023-02-06T16:24:48.245Z,19.57
2023-02-06T16:27:22.138Z,21.30
2023-02-06T16:29:52.657Z,18.97
2023-02-06T16:32:24.984Z,17.90
2023-02-06T16:34:53.637Z,17.30
2023-02-06T16:37:26.400Z,15.37
2023-02-06T16:39:56.351Z,17.30
2023-02-06T16:42:27.160Z,18.87
2023-02-06T16:45:00.970Z,18.93
2023-02-06T16:47:29.602Z,23.00
2023-02-06T16:49:57.824Z,18.70
2023-02-06T16:52:29.013Z,18.63
2023-02-06T16:54:59.814Z,17.27
2023-02-06T16:57:33.256Z,19.80
2023-02-06T17:00:01.857Z,53.20
2023-02-06T17:02:30.532Z,39.77
2023-02-06T17:04:58.619Z,58.93
2023-02-06T17:07:28.827Z,54.50
2023-02-06T17:09:59.453Z,41.80
2023-02-06T17:12:27.437Z,42.87
2023-02-06T17:14:55.472Z,40.97
2023-02-06T17:17:24.369Z,45.43
2023-02-06T17:19:53.326Z,43.80
2023-02-06T17:22:21.510Z,47.40
2023-02-06T17:24:49.632Z,48.20
2023-02-06T17:27:20.856Z,43.10
2023-02-06T17:29:50.523Z,41.07
2023-02-06T17:32:22.189Z,43.73
2023-02-06T17:34:51.511Z,43.33
2023-02-06T17:37:21.606Z,40.67
2023-02-06T17:39:50.997Z,32.60
2023-02-06T17:42:21.925Z,29.97
2023-02-06T17:44:50.105Z,26.10
2023-02-06T17:47:18.112Z,24.20
2023-02-06T17:49:46.799Z,25.10
2023-02-06T17:52:15.184Z,24.70
2023-02-06T17:54:43.245Z,26.83
2023-02-06T17:57:13.279Z,26.70
2023-02-06T17:59:42.741Z,28.13
2023-02-06T18:02:13.663Z,29.97
2023-02-06T18:04:41.717Z,25.27
2023-02-06T18:07:09.825Z,26.23
2023-02-06T18:09:38.031Z,27.00
2023-02-06T18:12:06.038Z,20.57
2023-02-06T18:14:34.023Z,16.53
2023-02-06T18:17:03.807Z,17.37
2023-02-06T18:19:31.873Z,17.60
2023-02-06T18:22:00.216Z,15.73
2023-02-06T18:24:28.164Z,16.23
2023-02-06T18:26:56.208Z,20.87
2023-02-06T18:29:24.208Z,18.30
2023-02-06T18:31:52.185Z,20.37
2023-02-06T18:34:21.879Z,32.07
2023-02-06T18:36:49.847Z,58.63
2023-02-06T18:39:17.788Z,43.20
2023-02-06T18:42:03.129Z,37.27
2023-02-06T18:44:31.916Z,37.57
2023-02-06T18:46:59.909Z,34.53
2023-02-06T18:49:29.192Z,37.10
2023-02-06T18:51:57.110Z,40.17
2023-02-06T18:54:25.038Z,33.53
2023-02-06T18:56:53.005Z,49.43
2023-02-06T18:59:21.159Z,52.77
2023-02-06T19:01:51.971Z,61.37
2023-02-06T19:04:20.514Z,48.47
2023-02-06T19:06:50.148Z,49.87
2023-02-06T19:09:20.619Z,47.27
2023-02-06T19:11:49.568Z,48.13
2023-02-06T19:14:22.535Z,48.10
2023-02-06T19:16:51.601Z,43.83
2023-02-06T19:19:20.002Z,48.37
2023-02-06T19:21:49.303Z,46.77
2023-02-06T19:24:19.513Z,42.17
2023-02-06T19:26:47.592Z,38.80
2023-02-06T19:29:19.328Z,33.90
2023-02-06T19:31:52.193Z,36.77
2023-02-06T19:34:20.190Z,39.77
2023-02-06T19:36:49.441Z,36.13
2023-02-06T19:39:17.357Z,32.57
2023-02-06T19:41:45.290Z,30.83
2023-02-06T19:44:14.676Z,31.53
2023-02-06T19:46:42.637Z,27.60
2023-02-06T19:49:12.217Z,23.10
2023-02-06T19:51:42.400Z,25.67
2023-02-06T19:54:11.731Z,27.23
2023-02-06T19:56:42.339Z,26.37
2023-02-06T19:59:18.038Z,39.00
2023-02-06T20:01:47.428Z,57.07
2023-02-06T20:04:15.652Z,49.03
2023-02-06T20:06:44.840Z,40.97
2023-02-06T20:09:16.477Z,39.33
2023-02-06T20:11:45.152Z,40.83
2023-02-06T20:14:13.664Z,43.57
2023-02-06T20:16:42.781Z,35.93
2023-02-06T20:19:13.313Z,40.93
2023-02-06T20:21:43.571Z,39.57
2023-02-06T20:24:14.748Z,38.80
2023-02-06T20:26:43.991Z,35.87
2023-02-06T20:29:19.926Z,39.60
2023-02-06T20:31:48.055Z,41.50
2023-02-06T20:34:16.055Z,37.23
2023-02-06T20:36:44.514Z,38.77
2023-02-06T20:39:14.909Z,40.40
2023-02-06T20:41:44.034Z,41.93
2023-02-06T20:44:13.593Z,39.17
2023-02-06T20:46:42.201Z,37.87
2023-02-06T20:49:16.749Z,39.87
2023-02-06T20:51:44.682Z,38.37
2023-02-06T20:54:14.416Z,41.57
2023-02-06T20:56:42.933Z,40.87
2023-02-06T20:59:14.297Z,42.10
2023-02-06T21:01:42.352Z,39.93
2023-02-06T21:04:12.094Z,45.57
2023-02-06T21:06:40.785Z,46.87
2023-02-06T21:09:09.728Z,50.07
2023-02-06T21:11:42.083Z,43.20
2023-02-06T21:14:10.514Z,41.80
2023-02-06T21:16:39.183Z,41.63
2023-02-06T21:19:09.127Z,43.97
2023-02-06T21:21:37.471Z,42.40
2023-02-06T21:24:06.219Z,42.50
2023-02-06T21:26:34.914Z,41.90
2023-02-06T21:29:04.867Z,43.70
2023-02-06T21:31:37.495Z,45.00
2023-02-06T21:34:09.075Z,47.17
2023-02-06T21:36:39.128Z,40.33
2023-02-06T21:39:07.607Z,41.87
2023-02-06T21:41:37.032Z,39.27
2023-02-06T21:44:06.850Z,38.33
2023-02-06T21:46:35.021Z,39.03
2023-02-06T21:49:02.978Z,42.60
2023-02-06T21:51:31.480Z,38.80
2023-02-06T21:53:59.473Z,55.87
2023-02-06T21:56:28.981Z,47.07
2023-02-06T21:58:57.708Z,44.73
2023-02-06T22:01:30.113Z,43.93
2023-02-06T22:03:58.684Z,44.30
2023-02-06T22:06:27.196Z,44.37
2023-02-06T22:08:56.693Z,41.87
2023-02-06T22:11:27.053Z,44.30
2023-02-06T22:13:59.460Z,41.10
2023-02-06T22:16:29.419Z,39.93
2023-02-06T22:18:58.013Z,40.27
2023-02-06T22:21:27.905Z,44.47
2023-02-06T22:23:58.501Z,43.47
2023-02-06T22:26:27.676Z,41.27
2023-02-06T22:28:55.615Z,42.07
2023-02-06T22:31:25.164Z,45.77
2023-02-06T22:33:55.059Z,44.23
2023-02-06T22:36:24.864Z,43.20
2023-02-06T22:38:56.672Z,44.90
2023-02-06T22:41:24.766Z,45.77
2023-02-06T22:43:53.417Z,48.60
2023-02-06T22:46:26.652Z,51.00
2023-02-06T22:48:56.143Z,46.50
2023-02-06T22:51:24.842Z,48.67
2023-02-06T22:53:53.285Z,51.20
2023-02-06T22:56:31.392Z,58.97
2023-02-06T22:59:01.570Z,60.23
2023-02-06T23:01:32.925Z,76.53
2023-02-06T23:04:03.569Z,83.90
2023-02-06T23:06:32.865Z,69.13
2023-02-06T23:09:02.626Z,60.20
2023-02-06T23:11:31.898Z,57.97
2023-02-06T23:14:02.260Z,56.67
2023-02-06T23:16:31.914Z,56.80
2023-02-06T23:19:04.640Z,57.03
2023-02-06T23:21:33.950Z,55.10
2023-02-06T23:24:02.000Z,48.67
2023-02-06T23:26:30.467Z,48.93
2023-02-06T23:28:59.234Z,46.67
2023-02-06T23:31:28.328Z,46.10
2023-02-06T23:33:56.809Z,46.43
2023-02-06T23:36:27.502Z,48.27
2023-02-06T23:38:56.158Z,50.07
2023-02-06T23:41:27.161Z,48.97
2023-02-06T23:43:56.840Z,50.47
2023-02-06T23:46:25.564Z,53.43
2023-02-06T23:48:54.128Z,50.43
2023-02-06T23:51:23.495Z,51.00
2023-02-06T23:53:53.119Z,54.70
2023-02-06T23:56:23.431Z,53.70
2023-02-06T23:58:52.087Z,55.63
